createdAt,value
2023-04-12T00:00:13.403Z,0.57
2023-04-12T00:02:42.184Z,0.50
2023-04-12T00:05:11.261Z,0.40
2023-04-12T00:07:38.390Z,0.40
2023-04-12T00:10:07.983Z,0.40
2023-04-12T00:12:37.903Z,0.55
2023-04-12T00:15:06.728Z,0.40
2023-04-12T00:17:35.168Z,0.40
2023-04-12T00:20:07.538Z,0.40
2023-04-12T00:22:34.497Z,0.50
2023-04-12T00:25:02.302Z,0.57
2023-04-12T00:27:30.341Z,0.40
2023-04-12T00:29:58.271Z,0.32
2023-04-12T00:32:27.227Z,0.35
2023-04-12T00:34:54.992Z,0.40
2023-04-12T00:37:23.078Z,0.40
2023-04-12T00:39:49.974Z,0.40
2023-04-12T00:42:18.808Z,0.40
2023-04-12T00:44:45.816Z,0.40
2023-04-12T00:47:12.947Z,0.35
2023-04-12T00:49:41.427Z,0.32
2023-04-12T00:52:14.929Z,0.40
2023-04-12T00:54:43.210Z,0.40
2023-04-12T00:57:12.149Z,0.40
2023-04-12T00:59:40.894Z,0.43
2023-04-12T01:02:09.615Z,0.40
2023-04-12T01:04:38.020Z,0.40
2023-04-12T01:07:37.261Z,0.60
2023-04-12T01:10:31.062Z,0.30
2023-04-12T01:13:09.750Z,0.38
2023-04-12T01:15:45.486Z,0.40
2023-04-12T01:18:19.743Z,0.40
2023-04-12T01:21:10.688Z,0.40
2023-04-12T01:24:03.984Z,0.40
2023-04-12T01:26:44.351Z,0.32
2023-04-12T01:29:20.938Z,0.37
2023-04-12T01:31:57.978Z,0.40
2023-04-12T01:34:30.037Z,0.30
2023-04-12T01:37:01.238Z,0.50
2023-04-12T01:39:30.807Z,0.40
2023-04-12T01:41:58.801Z,0.40
2023-04-12T01:44:27.692Z,0.40
2023-04-12T01:46:56.052Z,0.30
2023-04-12T01:49:32.885Z,0.50
2023-04-12T01:52:13.308Z,0.40
2023-04-12T01:54:44.465Z,0.40
2023-04-12T01:57:15.068Z,0.43
2023-04-12T01:59:45.442Z,0.40
2023-04-12T02:02:14.958Z,0.28
2023-04-12T02:04:43.375Z,0.30
2023-04-12T02:07:12.708Z,0.22
2023-04-12T02:09:41.592Z,0.20
2023-04-12T02:12:09.565Z,0.30
2023-04-12T02:14:37.549Z,0.30
2023-04-12T02:17:05.531Z,0.38
2023-04-12T02:19:33.903Z,0.40
2023-04-12T02:22:02.187Z,0.32
2023-04-12T02:24:32.014Z,0.22
2023-04-12T02:26:59.370Z,0.40
2023-04-12T02:29:28.216Z,0.30
2023-04-12T02:31:55.063Z,0.38
2023-04-12T02:34:25.762Z,0.30
2023-04-12T02:37:04.673Z,0.30
2023-04-12T02:39:32.222Z,0.45
2023-04-12T02:42:01.664Z,0.38
2023-04-12T02:44:37.694Z,0.30
2023-04-12T02:47:12.905Z,0.20
2023-04-12T02:49:44.194Z,0.40
2023-04-12T02:52:14.452Z,0.35
2023-04-12T02:54:57.274Z,0.30
2023-04-12T02:57:25.490Z,0.30
2023-04-12T02:59:55.234Z,0.30
2023-04-12T03:02:53.905Z,0.25
2023-04-12T03:05:27.326Z,0.45
2023-04-12T03:07:55.758Z,0.30
2023-04-12T03:10:35.937Z,0.30
2023-04-12T03:13:05.106Z,0.20
2023-04-12T03:15:43.721Z,0.20
2023-04-12T03:18:11.748Z,0.30
2023-04-12T03:20:47.523Z,0.30
2023-04-12T03:23:16.068Z,0.23
2023-04-12T03:25:46.208Z,0.20
2023-04-12T03:28:28.553Z,0.28
2023-04-12T03:30:57.353Z,0.28
2023-04-12T03:33:30.316Z,0.30
2023-04-12T03:36:05.462Z,0.40
2023-04-12T03:38:34.343Z,0.20
2023-04-12T03:41:01.648Z,0.30
2023-04-12T03:43:37.531Z,0.35
2023-04-12T03:46:15.597Z,0.40
2023-04-12T03:48:44.650Z,0.30
2023-04-12T03:51:13.127Z,0.40
2023-04-12T03:53:45.279Z,0.28
2023-04-12T03:56:17.215Z,0.30
2023-04-12T03:58:49.235Z,0.30
2023-04-12T04:01:18.259Z,0.30
2023-04-12T04:03:46.915Z,0.30
2023-04-12T04:06:20.308Z,0.40
2023-04-12T04:08:47.234Z,0.30
2023-04-12T04:11:14.752Z,0.38
2023-04-12T04:13:47.116Z,0.40
2023-04-12T04:16:20.352Z,0.53
2023-04-12T04:18:48.089Z,0.40
2023-04-12T04:21:19.731Z,0.30
2023-04-12T04:23:48.514Z,0.20
2023-04-12T04:26:16.939Z,0.30
2023-04-12T04:28:55.719Z,0.80
2023-04-12T04:31:34.230Z,0.50
2023-04-12T04:34:05.718Z,0.60
2023-04-12T04:36:36.915Z,0.45
2023-04-12T04:39:06.567Z,0.57
2023-04-12T04:41:42.325Z,0.40
2023-04-12T04:44:25.734Z,0.40
2023-04-12T04:46:59.120Z,0.47
2023-04-12T04:49:26.204Z,0.50
2023-04-12T04:51:55.418Z,0.40
2023-04-12T04:54:24.515Z,0.40
2023-04-12T04:56:52.494Z,0.70
2023-04-12T04:59:21.556Z,1.17
2023-04-12T05:01:51.523Z,1.00
2023-04-12T05:04:18.572Z,0.85
2023-04-12T05:06:46.661Z,0.60
2023-04-12T05:09:17.389Z,1.00
2023-04-12T05:11:50.882Z,0.90
2023-04-12T05:14:19.117Z,0.98
2023-04-12T05:16:46.043Z,0.65
2023-04-12T05:19:14.155Z,1.08
2023-04-12T05:21:41.934Z,0.70
2023-04-12T05:24:11.606Z,0.90
2023-04-12T05:26:39.708Z,0.70
2023-04-12T05:29:13.381Z,0.60
2023-04-12T05:31:43.258Z,0.70
2023-04-12T05:34:17.559Z,0.80
2023-04-12T05:36:51.863Z,0.80
2023-04-12T05:39:20.702Z,0.90
2023-04-12T05:41:49.794Z,0.80
2023-04-12T05:44:18.894Z,1.10
2023-04-12T05:46:47.023Z,1.00
2023-04-12T05:49:16.205Z,0.90
2023-04-12T05:51:43.264Z,0.95
2023-04-12T05:54:21.144Z,0.95
2023-04-12T05:56:54.391Z,0.80
2023-04-12T05:59:22.626Z,0.70
2023-04-12T06:01:50.498Z,0.73
2023-04-12T06:04:46.662Z,0.63
2023-04-12T06:07:19.310Z,0.80
2023-04-12T06:09:46.213Z,0.60
2023-04-12T06:12:14.319Z,0.90
2023-04-12T06:14:41.280Z,0.70
2023-04-12T06:17:08.802Z,0.68
2023-04-12T06:19:35.846Z,0.68
2023-04-12T06:22:03.693Z,0.70
2023-04-12T06:24:31.868Z,0.70
2023-04-12T06:27:01.909Z,0.60
2023-04-12T06:29:28.957Z,0.50
2023-04-12T06:31:56.913Z,0.73
2023-04-12T06:34:24.757Z,0.57
2023-04-12T06:36:57.458Z,0.60
2023-04-12T06:39:24.234Z,0.70
2023-04-12T06:41:51.030Z,0.80
2023-04-12T06:44:21.332Z,0.50
2023-04-12T06:46:48.178Z,0.52
2023-04-12T06:49:16.045Z,0.50
2023-04-12T06:51:44.612Z,0.70
2023-04-12T06:54:13.643Z,0.50
2023-04-12T06:56:41.601Z,0.75
2023-04-12T06:59:09.120Z,0.55
2023-04-12T07:01:36.157Z,0.70
2023-04-12T07:04:04.354Z,0.70
2023-04-12T07:06:31.483Z,0.57
2023-04-12T07:08:59.542Z,0.50
2023-04-12T07:11:27.825Z,0.50
2023-04-12T07:13:59.113Z,0.70
2023-04-12T07:16:26.071Z,0.50
2023-04-12T07:18:53.006Z,0.50
2023-04-12T07:21:21.012Z,0.50
2023-04-12T07:23:51.104Z,0.63
2023-04-12T07:26:19.431Z,0.70
2023-04-12T07:28:47.696Z,0.50
2023-04-12T07:31:14.487Z,0.57
2023-04-12T07:33:42.981Z,0.60
2023-04-12T07:36:11.138Z,0.57
2023-04-12T07:38:38.109Z,0.60
2023-04-12T07:41:06.018Z,0.70
2023-04-12T07:43:32.918Z,0.60
2023-04-12T07:46:04.472Z,0.50
2023-04-12T07:48:33.465Z,0.60
2023-04-12T07:51:00.624Z,0.50
2023-04-12T07:53:28.661Z,0.60
2023-04-12T07:55:56.003Z,0.70
2023-04-12T07:58:24.448Z,0.63
2023-04-12T08:00:54.499Z,0.80
2023-04-12T08:03:21.534Z,0.70
2023-04-12T08:05:53.743Z,0.80
2023-04-12T08:08:22.171Z,0.63
2023-04-12T08:10:49.712Z,0.50
2023-04-12T08:13:16.570Z,0.50
2023-04-12T08:15:47.580Z,0.40
2023-04-12T08:18:14.780Z,0.50
2023-04-12T08:20:42.147Z,0.60
2023-04-12T08:23:09.370Z,0.55
2023-04-12T08:25:36.474Z,0.50
2023-04-12T08:28:03.929Z,0.60
2023-04-12T08:30:31.106Z,0.50
2023-04-12T08:32:58.114Z,0.52
2023-04-12T08:35:25.047Z,0.50
2023-04-12T08:37:52.258Z,0.50
2023-04-12T08:40:21.757Z,0.45
2023-04-12T08:42:48.757Z,0.98
2023-04-12T08:45:15.582Z,0.50
2023-04-12T08:47:44.098Z,0.60
2023-04-12T08:50:14.133Z,0.68
2023-04-12T08:52:42.780Z,0.60
2023-04-12T08:55:11.069Z,0.43
2023-04-12T08:57:41.107Z,0.60
2023-04-12T09:00:09.692Z,0.80
2023-04-12T09:02:38.008Z,0.60
2023-04-12T09:05:06.531Z,0.70
2023-04-12T09:07:34.092Z,0.70
2023-04-12T09:10:01.335Z,0.68
2023-04-12T09:12:28.286Z,0.60
2023-04-12T09:15:13.304Z,0.70
2023-04-12T09:17:42.081Z,0.70
2023-04-12T09:20:18.272Z,0.57
2023-04-12T09:22:46.657Z,0.70
2023-04-12T09:25:14.661Z,0.77
2023-04-12T09:27:52.776Z,0.77
2023-04-12T09:30:21.183Z,0.70
2023-04-12T09:32:51.004Z,0.90
2023-04-12T09:35:18.495Z,0.68
2023-04-12T09:37:46.684Z,0.80
2023-04-12T09:40:13.999Z,0.65
2023-04-12T09:42:54.001Z,0.70
2023-04-12T09:45:26.368Z,0.75
2023-04-12T09:47:54.712Z,0.60
2023-04-12T09:50:28.675Z,0.60
2023-04-12T09:52:57.055Z,0.82
2023-04-12T09:55:26.067Z,0.60
2023-04-12T09:57:54.287Z,0.70
2023-04-12T10:00:26.744Z,0.73
2023-04-12T10:02:56.245Z,0.60
2023-04-12T10:05:26.348Z,0.52
2023-04-12T10:07:55.007Z,0.73
2023-04-12T10:10:23.314Z,0.50
2023-04-12T10:12:50.749Z,0.60
2023-04-12T10:15:18.601Z,0.50
2023-04-12T10:17:54.043Z,0.60
2023-04-12T10:20:23.354Z,0.60
2023-04-12T10:22:53.288Z,0.40
2023-04-12T10:25:27.731Z,0.60
2023-04-12T10:27:55.940Z,0.30
2023-04-12T10:30:25.383Z,0.60
2023-04-12T10:33:10.178Z,0.68
2023-04-12T10:35:50.804Z,0.43
2023-04-12T10:38:17.840Z,0.63
2023-04-12T10:41:07.626Z,0.50
2023-04-12T10:43:34.532Z,0.43
2023-04-12T10:46:05.076Z,0.60
2023-04-12T10:48:52.612Z,0.52
2023-04-12T10:51:27.968Z,0.50
2023-04-12T10:54:16.234Z,0.47
2023-04-12T10:56:44.637Z,0.50
2023-04-12T10:59:16.787Z,0.40
2023-04-12T11:02:10.064Z,0.50
2023-04-12T11:04:37.305Z,0.50
2023-04-12T11:07:13.153Z,0.50
2023-04-12T11:09:48.685Z,0.43
2023-04-12T11:12:27.204Z,0.40
2023-04-12T11:15:01.417Z,0.40
2023-04-12T11:17:38.048Z,0.40
2023-04-12T11:20:10.210Z,0.63
2023-04-12T11:22:38.803Z,0.50
2023-04-12T11:25:07.300Z,0.52
2023-04-12T11:27:34.580Z,0.40
2023-04-12T11:30:01.855Z,0.60
2023-04-12T11:32:30.679Z,0.40
2023-04-12T11:34:58.467Z,0.50
2023-04-12T11:37:30.769Z,0.50
2023-04-12T11:39:58.880Z,0.40
2023-04-12T11:42:27.318Z,0.47
2023-04-12T11:44:59.233Z,0.70
2023-04-12T11:47:28.677Z,0.60
2023-04-12T11:49:57.338Z,0.40
2023-04-12T11:52:33.861Z,0.40
2023-04-12T11:55:06.338Z,0.50
2023-04-12T11:57:34.170Z,0.50
2023-04-12T12:00:06.420Z,0.45
2023-04-12T12:02:52.247Z,0.63
2023-04-12T12:05:23.826Z,0.40
2023-04-12T12:07:52.494Z,0.50
2023-04-12T12:10:37.639Z,0.40
2023-04-12T12:13:12.090Z,0.32
2023-04-12T12:15:39.193Z,0.40
2023-04-12T12:18:09.840Z,0.50
2023-04-12T12:20:42.419Z,0.40
2023-04-12T12:23:09.497Z,0.40
2023-04-12T12:25:36.348Z,0.40
2023-04-12T12:28:05.310Z,0.50
2023-04-12T12:30:39.794Z,0.38
2023-04-12T12:33:06.913Z,0.40
2023-04-12T12:35:35.017Z,0.57
2023-04-12T12:38:06.391Z,0.40
2023-04-12T12:40:33.439Z,0.40
2023-04-12T12:43:01.297Z,0.50
2023-04-12T12:45:29.601Z,0.50
2023-04-12T12:48:00.033Z,0.40
2023-04-12T12:50:32.904Z,0.60
2023-04-12T12:53:03.488Z,0.43
2023-04-12T12:55:31.867Z,0.50
2023-04-12T13:00:32.279Z,0.47
2023-04-12T13:02:59.511Z,0.50
2023-04-12T13:05:26.832Z,0.47
2023-04-12T13:07:54.727Z,0.43
2023-04-12T13:10:21.705Z,0.80
2023-04-12T13:12:49.561Z,0.45
2023-04-12T13:17:46.220Z,0.80
2023-04-12T13:20:14.049Z,0.60
2023-04-12T13:22:41.886Z,0.50
2023-04-12T13:25:09.442Z,0.67
2023-04-12T13:27:36.533Z,0.70
2023-04-12T13:30:05.908Z,0.63
2023-04-12T13:32:32.756Z,0.70
2023-04-12T13:34:59.577Z,0.40
2023-04-12T13:37:26.284Z,0.40
2023-04-12T13:39:53.117Z,0.60
2023-04-12T13:42:20.092Z,0.50
2023-04-12T13:44:48.549Z,0.60
2023-04-12T13:47:16.321Z,0.50
2023-04-12T13:49:43.434Z,0.50
2023-04-12T13:52:10.353Z,0.43
2023-04-12T13:54:37.359Z,0.50
2023-04-12T13:57:04.385Z,0.63
2023-04-12T13:59:31.212Z,0.60
2023-04-12T14:01:58.360Z,0.43
2023-04-12T14:04:28.293Z,0.40
2023-04-12T14:06:55.982Z,0.47
2023-04-12T14:09:31.675Z,0.40
2023-04-12T14:12:00.117Z,0.60
2023-04-12T14:14:27.615Z,0.47
2023-04-12T14:16:58.381Z,0.70
2023-04-12T14:19:25.508Z,0.70
2023-04-12T14:21:52.398Z,0.60
2023-04-12T14:24:20.452Z,0.57
2023-04-12T14:26:49.992Z,0.43
2023-04-12T14:29:17.264Z,0.53
2023-04-12T14:31:45.339Z,0.50
2023-04-12T14:34:13.348Z,0.43
2023-04-12T14:36:40.614Z,0.60
2023-04-12T14:39:10.359Z,0.60
2023-04-12T14:41:37.883Z,0.50
2023-04-12T14:44:05.512Z,0.55
2023-04-12T14:46:32.514Z,0.50
2023-04-12T14:49:01.084Z,0.70
2023-04-12T14:51:29.132Z,0.60
2023-04-12T14:53:56.538Z,0.40
2023-04-12T14:56:27.986Z,0.63
2023-04-12T14:58:55.880Z,0.70
2023-04-12T15:01:23.881Z,0.68
2023-04-12T15:03:52.350Z,0.68
2023-04-12T15:06:22.017Z,0.50
2023-04-12T15:08:54.105Z,0.77
2023-04-12T15:11:22.220Z,0.68
2023-04-12T15:13:49.753Z,0.70
2023-04-12T15:16:16.644Z,0.57
2023-04-12T15:18:43.467Z,0.60
2023-04-12T15:21:12.685Z,0.45
2023-04-12T15:23:41.326Z,0.60
2023-04-12T15:26:11.894Z,0.55
2023-04-12T15:28:38.772Z,0.63
2023-04-12T15:31:06.396Z,0.60
2023-04-12T15:33:34.830Z,0.70
2023-04-12T15:36:02.769Z,0.70
2023-04-12T15:38:30.535Z,0.60
2023-04-12T15:41:01.558Z,0.60
2023-04-12T15:43:29.157Z,0.50
2023-04-12T15:45:56.574Z,0.60
2023-04-12T15:48:25.150Z,0.50
2023-04-12T15:50:53.476Z,0.60
2023-04-12T15:53:23.561Z,0.52
2023-04-12T15:55:54.173Z,0.70
2023-04-12T15:58:22.725Z,0.70
2023-04-12T16:00:49.966Z,0.70
2023-04-12T16:03:22.706Z,0.80
2023-04-12T16:05:53.178Z,0.73
2023-04-12T16:08:20.716Z,0.82
2023-04-12T16:10:47.986Z,0.60
2023-04-12T16:13:15.482Z,0.70
2023-04-12T16:15:42.254Z,0.73
2023-04-12T16:18:09.264Z,0.60
2023-04-12T16:20:36.208Z,0.70
2023-04-12T16:23:03.593Z,0.70
2023-04-12T16:25:30.637Z,0.70
2023-04-12T16:27:57.761Z,0.70
2023-04-12T16:30:25.385Z,0.50
2023-04-12T16:32:52.929Z,0.60
2023-04-12T16:35:19.758Z,0.70
2023-04-12T16:37:47.586Z,0.50
2023-04-12T16:40:14.409Z,0.60
2023-04-12T16:42:42.672Z,0.50
2023-04-12T16:45:11.820Z,0.65
2023-04-12T16:47:39.663Z,0.70
2023-04-12T16:50:12.672Z,0.55
2023-04-12T16:52:40.969Z,0.60
2023-04-12T16:55:10.855Z,0.60
2023-04-12T16:57:41.862Z,0.50
2023-04-12T17:00:28.833Z,0.60
2023-04-12T17:02:55.919Z,0.50
2023-04-12T17:05:23.192Z,0.60
2023-04-12T17:07:52.135Z,0.50
2023-04-12T17:10:20.358Z,0.63
2023-04-12T17:12:48.946Z,0.57
2023-04-12T17:15:17.843Z,0.60
2023-04-12T17:17:49.892Z,0.50
2023-04-12T17:20:22.115Z,0.57
2023-04-12T17:22:49.942Z,0.50
2023-04-12T17:25:18.717Z,0.60
2023-04-12T17:27:47.972Z,0.60
2023-04-12T17:30:17.500Z,0.50
2023-04-12T17:32:47.309Z,0.80
2023-04-12T17:35:14.506Z,0.60
2023-04-12T17:37:41.513Z,0.40
2023-04-12T17:40:10.581Z,0.50
2023-04-12T17:42:40.149Z,0.60
2023-04-12T17:45:07.688Z,0.50
2023-04-12T17:47:34.738Z,0.60
2023-04-12T17:50:01.758Z,0.60
2023-04-12T17:52:28.573Z,0.70
2023-04-12T17:54:55.625Z,0.60
2023-04-12T17:57:22.673Z,0.43
2023-04-12T17:59:49.459Z,0.47
2023-04-12T18:02:17.477Z,0.40
2023-04-12T18:04:45.134Z,0.50
2023-04-12T18:07:12.110Z,0.70
2023-04-12T18:09:38.895Z,0.45
2023-04-12T18:12:06.019Z,0.40
2023-04-12T18:14:32.906Z,0.55
2023-04-12T18:16:59.750Z,0.50
2023-04-12T18:19:26.570Z,0.45
2023-04-12T18:21:53.276Z,0.50
2023-04-12T18:24:20.077Z,0.50
2023-04-12T18:26:47.060Z,0.30
2023-04-12T18:29:15.897Z,0.47
2023-04-12T18:31:42.999Z,0.55
2023-04-12T18:34:10.028Z,0.55
2023-04-12T18:36:37.019Z,0.38
2023-04-12T18:39:07.894Z,0.50
2023-04-12T18:41:34.762Z,0.60
2023-04-12T18:44:01.601Z,0.60
2023-04-12T18:46:31.787Z,0.43
2023-04-12T18:48:59.148Z,0.40
2023-04-12T18:51:26.241Z,0.43
2023-04-12T18:53:52.977Z,0.40
2023-04-12T18:56:24.345Z,0.40
2023-04-12T18:58:55.719Z,0.32
2023-04-12T19:01:24.185Z,0.43
2023-04-12T19:03:51.547Z,0.43
2023-04-12T19:06:18.616Z,0.40
2023-04-12T19:08:45.597Z,0.32
2023-04-12T19:11:12.425Z,0.40
2023-04-12T19:13:39.333Z,0.40
2023-04-12T19:16:09.248Z,0.40
2023-04-12T19:18:36.121Z,0.40
2023-04-12T19:21:04.121Z,0.40
2023-04-12T19:23:31.241Z,0.30
2023-04-12T19:25:59.847Z,0.40
2023-04-12T19:28:27.884Z,0.38
2023-04-12T19:30:57.743Z,0.30
2023-04-12T19:33:25.391Z,0.40
2023-04-12T19:35:55.113Z,0.40
2023-04-12T19:38:22.148Z,0.30
2023-04-12T19:40:50.830Z,0.30
2023-04-12T19:43:20.843Z,0.50
2023-04-12T19:45:47.773Z,0.30
2023-04-12T19:48:14.536Z,0.40
2023-04-12T19:50:41.513Z,0.30
2023-04-12T19:53:08.326Z,0.35
2023-04-12T19:55:35.779Z,0.30
2023-04-12T19:58:03.434Z,0.40
2023-04-12T20:00:30.238Z,0.38
2023-04-12T20:02:57.251Z,0.30
2023-04-12T20:05:24.211Z,0.40
2023-04-12T20:07:52.672Z,0.30
2023-04-12T20:10:20.131Z,0.30
2023-04-12T20:12:46.949Z,0.30
2023-04-12T20:15:14.031Z,0.50
2023-04-12T20:17:42.878Z,0.35
2023-04-12T20:20:11.001Z,0.30
2023-04-12T20:22:39.530Z,0.30
2023-04-12T20:25:06.563Z,0.30
2023-04-12T20:27:33.649Z,0.30
2023-04-12T20:30:00.673Z,0.40
2023-04-12T20:32:27.741Z,0.20
2023-04-12T20:34:54.770Z,0.20
2023-04-12T20:37:21.680Z,0.35
2023-04-12T20:39:48.397Z,0.40
2023-04-12T20:42:18.614Z,0.30
2023-04-12T20:44:45.461Z,0.38
2023-04-12T20:47:12.573Z,0.30
2023-04-12T20:49:39.449Z,0.40
2023-04-12T20:52:06.136Z,0.30
2023-04-12T20:54:33.876Z,0.30
2023-04-12T20:57:03.736Z,0.32
2023-04-12T20:59:31.961Z,0.38
2023-04-12T21:01:59.390Z,0.30
2023-04-12T21:04:29.526Z,0.32
2023-04-12T21:06:57.307Z,0.30
2023-04-12T21:09:24.432Z,0.32
2023-04-12T21:11:52.621Z,0.30
2023-04-12T21:14:20.478Z,0.30
2023-04-12T21:16:50.789Z,0.30
2023-04-12T21:19:18.417Z,0.30
2023-04-12T21:21:45.990Z,0.37
2023-04-12T21:24:13.101Z,0.20
2023-04-12T21:26:40.739Z,0.30
2023-04-12T21:29:07.402Z,0.30
2023-04-12T21:31:34.279Z,0.40
2023-04-12T21:34:01.753Z,0.38
2023-04-12T21:36:28.735Z,0.30
2023-04-12T21:38:56.349Z,0.40
2023-04-12T21:41:24.966Z,0.27
2023-04-12T21:43:52.307Z,0.40
2023-04-12T21:46:19.554Z,0.38
2023-04-12T21:48:46.403Z,0.30
2023-04-12T21:51:13.245Z,0.30
2023-04-12T21:53:39.925Z,0.30
2023-04-12T21:56:07.255Z,0.32
2023-04-12T21:58:34.103Z,0.28
2023-04-12T22:01:01.641Z,0.40
2023-04-12T22:03:28.628Z,0.30
2023-04-12T22:06:04.157Z,0.30
2023-04-12T22:08:32.724Z,0.35
2023-04-12T22:11:00.217Z,0.30
2023-04-12T22:13:27.479Z,0.40
2023-04-12T22:15:54.431Z,0.40
2023-04-12T22:18:21.945Z,0.43
2023-04-12T22:20:48.947Z,0.40
2023-04-12T22:23:17.764Z,0.47
2023-04-12T22:25:45.967Z,0.52
2023-04-12T22:28:12.726Z,0.53
2023-04-12T22:30:39.669Z,0.50
2023-04-12T22:33:08.204Z,0.70
2023-04-12T22:35:36.312Z,0.57
2023-04-12T22:38:04.054Z,0.52
2023-04-12T22:40:31.004Z,0.55
2023-04-12T22:42:58.067Z,0.53
2023-04-12T22:45:25.051Z,0.52
2023-04-12T22:47:52.805Z,0.40
2023-04-12T22:50:20.116Z,0.68
2023-04-12T22:52:49.583Z,0.45
2023-04-12T22:55:17.928Z,0.70
2023-04-12T22:57:44.989Z,0.63
2023-04-12T23:00:15.751Z,0.50
2023-04-12T23:02:43.954Z,0.70
2023-04-12T23:05:11.961Z,0.70
2023-04-12T23:07:41.110Z,0.50
2023-04-12T23:10:08.690Z,0.80
2023-04-12T23:12:36.078Z,0.82
2023-04-12T23:15:05.953Z,0.90
2023-04-12T23:17:33.691Z,0.70
2023-04-12T23:20:01.574Z,0.70
2023-04-12T23:22:55.013Z,0.80
2023-04-12T23:25:38.662Z,0.82
2023-04-12T23:28:13.017Z,0.80
2023-04-12T23:30:50.881Z,0.80
2023-04-12T23:33:20.089Z,0.75
2023-04-12T23:35:49.318Z,0.75
2023-04-12T23:38:23.030Z,0.68
2023-04-12T23:40:54.224Z,0.70
2023-04-12T23:43:22.384Z,0.80
2023-04-12T23:45:49.449Z,0.90
2023-04-12T23:48:16.554Z,0.70
2023-04-12T23:50:45.579Z,0.70
2023-04-12T23:53:12.905Z,0.95
2023-04-12T23:55:41.829Z,0.80
2023-04-12T23:58:09.423Z,0.88
